Time;durP1;ratioP1;P1;durP2;ratioP2;P2;SDS_P1;SDS_P2;PMS_P1;PMS_P2;Temp;Humidity;BMP_temperature;BMP_pressure;BME280_temperature;BME280_humidity;BME280_pressure;Samples;Min_cycle;Max_cycle;Signal;HPM_P1;HPM_P2
2023/03/14 00:01:34;;;;;;;;;;;;;;;28.02;54.13;101104.75;5048091;28;66211;-39
2023/03/14 00:04:05;;;;;;;;;;;;;;;28.03;54.10;101106.44;5056023;28;69905;-38
2023/03/14 00:06:35;;;;;;;;;;;;;;;28.06;54.53;101103.34;5044255;28;65868;-38
2023/03/14 00:09:06;;;;;;;;;;;;;;;28.10;54.90;101108.34;5057080;28;69509;-37
2023/03/14 00:11:36;;;;;;;;;;;;;;;28.13;54.50;101105.25;5045687;28;65510;-36
2023/03/14 00:14:07;;;;;;;;;;;;;;;28.15;54.23;101108.59;5053211;28;69782;-37
2023/03/14 00:16:37;;;;;;;;;;;;;;;28.15;54.12;101122.06;5056082;28;66399;-36
2023/03/14 00:19:08;;;;;;;;;;;;;;;28.15;53.78;101120.19;5051848;28;68526;-36
2023/03/14 00:21:38;;;;;;;;;;;;;;;28.17;53.68;101125.41;5048592;28;66164;-38
2023/03/14 00:24:09;;;;;;;;;;;;;;;28.17;53.92;101120.84;5043099;28;69943;-37
2023/03/14 00:26:39;;;;;;;;;;;;;;;28.19;53.82;101120.63;5047002;28;66657;-37
2023/03/14 00:29:09;;;;;;;;;;;;;;;28.19;53.34;101121.47;5053689;28;69439;-38
2023/03/14 00:31:40;;;;;;;;;;;;;;;28.21;53.69;101121.28;5051899;28;66113;-39
2023/03/14 00:34:10;;;;;;;;;;;;;;;28.20;53.21;101133.09;5042199;28;69735;-38
2023/03/14 00:36:40;;;;;;;;;;;;;;;28.22;53.09;101125.63;5050382;27;66582;-39
2023/03/14 00:39:10;;;;;;;;;;;;;;;28.23;54.00;101127.31;5066238;27;69744;-42
2023/03/14 00:41:40;;;;;;;;;;;;;;;28.24;54.26;101123.56;5050160;28;66293;-40
2023/03/14 00:44:11;;;;;;;;;;;;;;;28.27;54.14;101129.41;5058492;28;70490;-42
2023/03/14 00:46:41;;;;;;;;;;;;;;;28.29;54.60;101121.13;5061458;27;66371;-39
2023/03/14 00:49:11;;;;;;;;;;;;;;;28.29;54.22;101121.97;5053392;28;70288;-38
2023/03/14 00:51:41;;;;;;;;;;;;;;;28.29;54.45;101115.72;5046797;28;66672;-39
2023/03/14 00:54:12;;;;;;;;;;;;;;;28.31;54.26;101119.06;5085291;27;69003;-39
2023/03/14 00:56:42;;;;;;;;;;;;;;;28.31;54.14;101124.47;5080324;27;65768;-38
2023/03/14 00:59:12;;;;;;;;;;;;;;;28.33;53.96;101127.78;5050152;27;69646;-39
2023/03/14 01:01:43;;;;;;;;;;;;;;;28.35;54.06;101133.00;5048583;28;65799;-39
2023/03/14 01:04:13;;;;;;;;;;;;;;;28.34;54.08;101134.88;5060922;27;70261;-39
2023/03/14 01:06:47;;;;;;;;;;;;;;;28.36;53.60;101135.50;5044520;28;67150;-39
2023/03/14 01:09:17;;;;;;;;;;;;;;;28.37;53.74;101139.03;5051218;27;70501;-39
2023/03/14 01:11:48;;;;;;;;;;;;;;;28.38;53.59;101141.53;5037852;28;66197;-40
2023/03/14 01:14:19;;;;;;;;;;;;;;;28.39;53.83;101145.91;5073658;27;69070;-39
2023/03/14 01:16:49;;;;;;;;;;;;;;;28.40;53.47;101136.75;5051620;28;66997;-40
2023/03/14 01:19:20;;;;;;;;;;;;;;;28.41;53.87;101141.13;5041116;28;69714;-39
2023/03/14 01:21:50;;;;;;;;;;;;;;;28.42;53.58;101153.63;5051610;28;66019;-39
2023/03/14 01:24:21;;;;;;;;;;;;;;;28.43;53.42;101168.78;5057645;28;69686;-40
2023/03/14 01:26:51;;;;;;;;;;;;;;;28.44;53.60;101156.94;5045742;28;65604;-41
2023/03/14 01:29:24;;;;;;;;;;;;;;;28.45;53.53;101155.94;5062394;28;70358;-41
2023/03/14 01:31:54;;;;;;;;;;;;;;;28.47;53.77;101155.72;5052110;28;66865;-40
2023/03/14 01:34:24;;;;;;;;;;;;;;;28.49;53.28;101149.09;5048601;28;70156;-39
2023/03/14 01:36:55;;;;;;;;;;;;;;;28.49;53.26;101151.78;5051586;28;66810;-39
2023/03/14 01:39:25;;;;;;;;;;;;;;;28.51;53.35;101152.44;5037555;28;69434;-39
2023/03/14 01:41:55;;;;;;;;;;;;;;;28.51;53.01;101152.44;5042957;28;66483;-40
2023/03/14 01:44:27;;;;;;;;;;;;;;;28.55;53.05;101162.84;5066824;28;69569;-39
2023/03/14 01:46:57;;;;;;;;;;;;;;;28.57;53.47;101166.19;5040491;28;66656;-39
2023/03/14 01:49:33;;;;;;;;;;;;;;;28.58;53.35;101163.25;5048279;27;70626;-39
2023/03/14 01:52:20;;;;;;;;;;;;;;;28.59;53.15;101164.13;5053582;27;66043;-38
2023/03/14 01:54:59;;;;;;;;;;;;;;;28.62;52.88;101158.31;5073801;27;70859;-40
2023/03/14 01:57:33;;;;;;;;;;;;;;;28.64;52.82;101158.94;5045055;28;66253;-40
2023/03/14 02:00:11;;;;;;;;;;;;;;;28.65;52.89;101152.53;5086289;27;70537;-39
2023/03/14 02:02:45;;;;;;;;;;;;;;;28.67;52.79;101153.16;5053198;28;65987;-40
2023/03/14 02:05:20;;;;;;;;;;;;;;;28.69;53.20;101151.09;5051341;28;70774;-39
2023/03/14 02:07:57;;;;;;;;;;;;;;;28.71;53.08;101152.56;5070884;28;66713;-39
2023/03/14 02:10:45;;;;;;;;;;;;;;;28.73;53.00;101150.50;5051829;28;70552;-38
2023/03/14 02:13:20;;;;;;;;;;;;;;;28.76;53.00;101146.56;5058812;27;66651;-39
2023/03/14 02:15:55;;;;;;;;;;;;;;;28.76;52.69;101140.34;5050219;28;70003;-39
2023/03/14 02:18:48;;;;;;;;;;;;;;;28.79;52.84;101148.03;5067583;27;66271;-41
2023/03/14 02:21:53;;;;;;;;;;;;;;;28.82;52.75;101144.94;5040909;28;70006;-39
2023/03/14 02:24:34;;;;;;;;;;;;;;;28.83;52.57;101133.91;5046352;28;65993;-39
2023/03/14 02:27:10;;;;;;;;;;;;;;;28.86;52.50;101133.53;5057150;27;70050;-39
2023/03/14 02:29:51;;;;;;;;;;;;;;;28.88;52.02;101131.44;5051081;28;66481;-39
2023/03/14 02:32:22;;;;;;;;;;;;;;;28.91;52.49;101119.41;5086889;27;69005;-39
2023/03/14 02:34:55;;;;;;;;;;;;;;;28.93;52.35;101122.75;5045275;28;65793;-39
2023/03/14 02:37:35;;;;;;;;;;;;;;;28.95;51.80;101126.09;5054130;28;69861;-38
2023/03/14 02:40:07;;;;;;;;;;;;;;;28.96;51.75;101123.19;5045172;28;66162;-39
2023/03/14 02:42:39;;;;;;;;;;;;;;;29.00;52.17;101122.78;5068779;27;69701;-39
2023/03/14 02:45:09;;;;;;;;;;;;;;;29.01;52.04;101119.06;5056881;27;66022;-40
2023/03/14 02:47:44;;;;;;;;;;;;;;;29.04;51.65;101113.28;5053495;27;70059;-41
2023/03/14 02:50:18;;;;;;;;;;;;;;;29.06;51.91;101111.19;5054701;27;66530;-38
2023/03/14 02:52:49;;;;;;;;;;;;;;;29.09;51.88;101116.22;5058301;27;69941;-41
2023/03/14 02:55:23;;;;;;;;;;;;;;;29.10;51.51;101116.00;5050326;28;66443;-42
2023/03/14 02:57:55;;;;;;;;;;;;;;;29.13;51.41;101112.06;5056172;27;69891;-37
2023/03/14 03:00:27;;;;;;;;;;;;;;;29.15;51.11;101115.41;5053855;28;67188;-39
2023/03/14 03:02:57;;;;;;;;;;;;;;;29.18;51.65;101112.28;5041306;28;71098;-41
2023/03/14 03:05:28;;;;;;;;;;;;;;;29.21;51.48;101103.78;5055760;27;66933;-38
2023/03/14 03:07:58;;;;;;;;;;;;;;;29.23;50.93;101095.47;5046099;28;70243;-38
2023/03/14 03:10:29;;;;;;;;;;;;;;;29.26;51.42;101095.88;5041620;28;66762;-38
2023/03/14 03:12:59;;;;;;;;;;;;;;;29.27;51.20;101092.13;5037828;28;70057;-39
2023/03/14 03:15:30;;;;;;;;;;;;;;;29.30;50.79;101091.72;5054859;27;66638;-40
2023/03/14 03:18:00;;;;;;;;;;;;;;;29.31;50.81;101085.31;5037409;27;70473;-40
2023/03/14 03:20:30;;;;;;;;;;;;;;;29.34;50.62;101087.59;5049628;27;65798;-39
2023/03/14 03:23:00;;;;;;;;;;;;;;;29.36;51.11;101077.41;5040613;28;70263;-39
2023/03/14 03:25:31;;;;;;;;;;;;;;;29.39;51.14;101068.91;5041074;28;67187;-41
2023/03/14 03:28:07;;;;;;;;;;;;;;;29.42;50.85;101064.97;5044622;28;70882;-39
2023/03/14 03:30:40;;;;;;;;;;;;;;;29.45;50.95;101064.53;5038824;28;65995;-39
2023/03/14 03:33:11;;;;;;;;;;;;;;;29.48;50.33;101063.31;5058687;27;70855;-40
2023/03/14 03:35:49;;;;;;;;;;;;;;;29.49;50.41;101057.66;5047891;28;65610;-41
2023/03/14 03:38:26;;;;;;;;;;;;;;;29.53;50.81;101052.69;5076821;27;70842;-40
2023/03/14 03:40:57;;;;;;;;;;;;;;;29.56;50.70;101052.25;5052308;28;67162;-39
2023/03/14 03:43:28;;;;;;;;;;;;;;;29.57;50.22;101059.34;5073084;27;69653;-38
2023/03/14 03:46:04;;;;;;;;;;;;;;;29.60;50.53;101048.13;5053240;28;66927;-40
2023/03/14 03:48:35;;;;;;;;;;;;;;;29.63;50.55;101045.03;5076135;27;70632;-39
2023/03/14 03:51:07;;;;;;;;;;;;;;;29.65;50.10;101039.44;5080972;27;65837;-39
2023/03/14 03:53:37;;;;;;;;;;;;;;;29.68;50.07;101030.91;5068388;27;70312;-39
2023/03/14 03:56:11;;;;;;;;;;;;;;;29.69;50.04;101019.84;5050878;28;66850;-39
2023/03/14 03:58:43;;;;;;;;;;;;;;;29.72;50.00;101019.44;5076227;27;71351;-39
2023/03/14 04:01:13;;;;;;;;;;;;;;;29.74;50.27;101014.66;5052003;28;66656;-39
2023/03/14 04:03:47;;;;;;;;;;;;;;;29.77;49.89;101008.81;5061934;27;69333;-38
2023/03/14 04:06:18;;;;;;;;;;;;;;;29.78;49.71;101005.09;5056578;28;66921;-39
2023/03/14 04:08:50;;;;;;;;;;;;;;;29.81;49.85;101001.97;5048027;28;70416;-38
2023/03/14 04:11:46;;;;;;;;;;;;;;;29.83;49.74;100989.06;5024067;28;66415;-39
2023/03/14 04:14:22;;;;;;;;;;;;;;;29.86;49.69;100989.69;5051322;28;70489;-40
2023/03/14 04:17:08;;;;;;;;;;;;;;;29.90;49.91;100990.94;5054227;28;67518;-39
2023/03/14 04:19:38;;;;;;;;;;;;;;;29.93;49.69;100982.41;5056519;28;69046;-39
2023/03/14 04:22:09;;;;;;;;;;;;;;;29.95;49.93;100985.69;5084363;27;65912;-39
2023/03/14 04:24:51;;;;;;;;;;;;;;;29.97;49.77;100978.22;5063048;27;69965;-39
2023/03/14 04:27:22;;;;;;;;;;;;;;;29.99;49.25;100970.72;5051016;28;65671;-40
2023/03/14 04:29:53;;;;;;;;;;;;;;;30.02;49.70;100954.06;5071351;27;70128;-41
2023/03/14 04:32:42;;;;;;;;;;;;;;;30.04;49.69;100954.69;5058890;27;66255;-41
2023/03/14 04:35:13;;;;;;;;;;;;;;;30.07;49.13;100951.56;5049075;28;69864;-39
2023/03/14 04:37:43;;;;;;;;;;;;;;;30.09;49.61;100941.38;5067279;27;66266;-38
2023/03/14 04:40:16;;;;;;;;;;;;;;;30.12;49.60;100942.81;5053237;28;70585;-39
2023/03/14 04:42:47;;;;;;;;;;;;;;;30.12;49.27;100932.81;5051151;27;67159;-39
2023/03/14 04:45:18;;;;;;;;;;;;;;;30.14;49.22;100925.28;5057847;28;70351;-40
2023/03/14 04:47:49;;;;;;;;;;;;;;;30.16;49.30;100920.50;5076642;27;66393;-39
2023/03/14 04:50:20;;;;;;;;;;;;;;;30.18;49.61;100918.44;5054135;28;70241;-40
2023/03/14 04:52:51;;;;;;;;;;;;;;;30.20;49.79;100913.66;5044979;28;67143;-39
2023/03/14 04:55:22;;;;;;;;;;;;;;;30.22;49.71;100903.44;5044988;28;70274;-40
2023/03/14 04:57:54;;;;;;;;;;;;;;;30.23;49.22;100891.59;5086204;27;65325;-39
2023/03/14 05:00:25;;;;;;;;;;;;;;;30.26;49.56;100895.75;5061285;27;69245;-40
2023/03/14 05:03:08;;;;;;;;;;;;;;;30.28;49.67;100891.78;5072228;27;66335;-40
2023/03/14 05:05:58;;;;;;;;;;;;;;;30.30;49.71;100890.72;5061947;27;70547;-40
2023/03/14 05:08:34;;;;;;;;;;;;;;;30.30;49.43;100878.03;5051812;28;66630;-39
2023/03/14 05:11:18;;;;;;;;;;;;;;;30.32;49.04;100877.81;5087440;27;70324;-41
2023/03/14 05:14:07;;;;;;;;;;;;;;;30.33;49.00;100869.47;5055240;28;65999;-42
2023/03/14 05:16:56;;;;;;;;;;;;;;;30.35;49.30;100855.72;5053493;28;70785;-40
2023/03/14 05:19:43;;;;;;;;;;;;;;;30.37;49.31;100864.44;5076486;27;65524;-40
2023/03/14 05:22:46;;;;;;;;;;;;;;;30.39;49.20;100851.53;5044290;28;70060;-40
2023/03/14 05:25:37;;;;;;;;;;;;;;;30.41;49.17;100844.03;5053300;28;65927;-39
2023/03/14 05:28:16;;;;;;;;;;;;;;;30.44;48.58;100843.59;5048740;28;70174;-39
2023/03/14 05:31:07;;;;;;;;;;;;;;;30.46;48.91;100836.09;5053449;28;66072;-40
2023/03/14 05:33:53;;;;;;;;;;;;;;;30.49;48.46;100824.81;5046477;28;70028;-40
2023/03/14 05:36:45;;;;;;;;;;;;;;;30.51;48.40;100822.72;5052238;28;64992;-40
2023/03/14 05:39:37;;;;;;;;;;;;;;;30.55;48.65;100815.81;5055755;28;69489;-41
2023/03/14 05:42:27;;;;;;;;;;;;;;;30.57;48.56;100813.72;5054472;28;65890;-42
2023/03/14 05:45:16;;;;;;;;;;;;;;;30.59;48.15;100798.09;5047705;28;70836;-40
2023/03/14 05:48:04;;;;;;;;;;;;;;;30.62;48.01;100803.06;5081002;27;66160;-41
2023/03/14 05:50:44;;;;;;;;;;;;;;;30.64;47.84;100806.38;5042453;28;70551;-41
2023/03/14 05:53:26;;;;;;;;;;;;;;;30.67;48.04;100797.81;5081387;27;66622;-41
2023/03/14 05:56:34;;;;;;;;;;;;;;;30.69;48.26;100798.41;5042790;28;69788;-39
2023/03/14 05:59:34;;;;;;;;;;;;;;;30.73;47.83;100794.22;5034140;28;65865;-40
2023/03/14 06:02:39;;;;;;;;;;;;;;;30.76;47.98;100781.28;5049958;27;69806;-39
2023/03/14 06:05:19;;;;;;;;;;;;;;;30.79;48.03;100778.97;5051597;27;66132;-40
2023/03/14 06:07:54;;;;;;;;;;;;;;;30.81;47.78;100778.78;5051604;28;69828;-39
2023/03/14 06:10:25;;;;;;;;;;;;;;;30.84;47.96;100772.91;5057280;28;66134;-39
2023/03/14 06:12:56;;;;;;;;;;;;;;;30.87;47.54;100769.75;5051625;27;70644;-38
2023/03/14 06:15:27;;;;;;;;;;;;;;;30.88;47.62;100764.13;5051589;28;66083;-40
2023/03/14 06:17:57;;;;;;;;;;;;;;;30.92;47.67;100759.94;5051861;28;69987;-40
2023/03/14 06:20:28;;;;;;;;;;;;;;;30.95;47.41;100753.22;5055509;28;66971;-39
2023/03/14 06:22:59;;;;;;;;;;;;;;;30.98;47.63;100747.38;5043860;28;69747;-38
2023/03/14 06:25:32;;;;;;;;;;;;;;;31.00;47.55;100742.53;5051997;28;67060;-39
2023/03/14 06:28:03;;;;;;;;;;;;;;;31.02;47.18;100743.16;5085312;27;69743;-40
2023/03/14 06:30:33;;;;;;;;;;;;;;;31.06;47.29;100741.63;5041740;28;66091;-39
2023/03/14 06:33:04;;;;;;;;;;;;;;;31.08;47.05;100734.13;5076085;27;69920;-39
2023/03/14 06:35:34;;;;;;;;;;;;;;;31.12;47.25;100729.06;5051909;27;67255;-40
2023/03/14 06:38:05;;;;;;;;;;;;;;;31.15;46.99;100726.75;5036578;27;70547;-40
2023/03/14 06:40:36;;;;;;;;;;;;;;;31.19;47.36;100715.47;5086155;27;67938;-38
2023/03/14 06:43:11;;;;;;;;;;;;;;;31.23;47.12;100712.06;5023500;28;69359;-39
2023/03/14 06:45:44;;;;;;;;;;;;;;;31.28;47.28;100714.09;5077472;27;65630;-40
2023/03/14 06:48:14;;;;;;;;;;;;;;;31.31;47.02;100711.75;5050986;28;70100;-40
2023/03/14 06:50:49;;;;;;;;;;;;;;;31.35;46.96;100706.72;5052584;28;66601;-39
2023/03/14 06:53:19;;;;;;;;;;;;;;;31.39;46.90;100707.94;5075343;27;70375;-40
2023/03/14 06:55:49;;;;;;;;;;;;;;;31.44;46.45;100704.53;5042318;28;66784;-40
2023/03/14 06:58:20;;;;;;;;;;;;;;;31.47;46.35;100701.38;5050522;28;69357;-47
2023/03/14 07:00:52;;;;;;;;;;;;;;;31.52;46.12;100696.94;5052969;28;66713;-39
2023/03/14 07:03:26;;;;;;;;;;;;;;;31.56;46.68;100689.97;5054600;27;70938;-40
2023/03/14 07:05:57;;;;;;;;;;;;;;;31.61;46.27;100676.56;5044239;28;66857;-41
2023/03/14 07:08:28;;;;;;;;;;;;;;;31.65;45.97;100665.25;5057075;27;69980;-41
2023/03/14 07:10:58;;;;;;;;;;;;;;;31.45;45.96;100628.41;5041443;28;66259;-41
2023/03/14 07:13:29;;;;;;;;;;;;;;;31.74;46.11;100664.69;5044979;28;69998;-41
2023/03/14 07:16:04;;;;;;;;;;;;;;;31.79;45.81;100661.31;5046677;28;65500;-39
2023/03/14 07:18:37;;;;;;;;;;;;;;;31.85;45.89;100654.94;5049050;27;69759;-41
2023/03/14 07:21:08;;;;;;;;;;;;;;;31.90;45.85;100643.38;5080011;27;66375;-38
2023/03/14 07:23:40;;;;;;;;;;;;;;;31.94;45.78;100641.91;5046574;27;70083;-40
2023/03/14 07:26:10;;;;;;;;;;;;;;;31.97;45.82;100642.25;5047572;28;66623;-39
2023/03/14 07:28:46;;;;;;;;;;;;;;;32.03;45.62;100633.16;5084208;27;69962;-40
2023/03/14 07:31:19;;;;;;;;;;;;;;;32.08;45.61;100634.38;5047293;27;67058;-39
2023/03/14 07:33:49;;;;;;;;;;;;;;;32.14;45.38;100625.28;5049873;28;71110;-39
2023/03/14 07:36:21;;;;;;;;;;;;;;;32.19;45.25;100622.69;5080958;27;66672;-39
2023/03/14 07:38:52;;;;;;;;;;;;;;;32.24;44.88;100617.41;5078585;27;70201;-38
2023/03/14 07:41:40;;;;;;;;;;;;;;;32.30;45.09;100623.78;5081254;27;66156;-39
2023/03/14 07:44:37;;;;;;;;;;;;;;;32.35;44.73;100616.56;5042613;28;70509;-40
2023/03/14 07:47:08;;;;;;;;;;;;;;;32.41;44.92;100621.03;5054458;27;66570;-39
2023/03/14 07:49:39;;;;;;;;;;;;;;;32.46;44.72;100613.06;5054035;28;69956;-41
2023/03/14 07:52:09;;;;;;;;;;;;;;;32.52;44.76;100610.44;5043322;27;66700;-39
2023/03/14 07:54:40;;;;;;;;;;;;;;;32.58;44.63;100620.34;5053325;28;70725;-40
2023/03/14 07:57:10;;;;;;;;;;;;;;;32.62;44.63;100611.47;5063901;27;65427;-39
2023/03/14 07:59:40;;;;;;;;;;;;;;;32.67;44.39;100619.72;5050937;27;70291;-39
2023/03/14 08:02:11;;;;;;;;;;;;;;;32.72;44.17;100611.69;5055838;27;65691;-39
2023/03/14 08:04:42;;;;;;;;;;;;;;;32.77;44.15;100608.28;5041422;28;69580;-38
2023/03/14 08:07:12;;;;;;;;;;;;;;;32.82;44.45;100605.66;5052029;28;66940;-39
2023/03/14 08:09:42;;;;;;;;;;;;;;;32.90;44.12;100608.00;5055387;28;69791;-39
2023/03/14 08:12:12;;;;;;;;;;;;;;;32.96;43.84;100608.09;5051828;28;67459;-39
2023/03/14 08:14:43;;;;;;;;;;;;;;;33.03;43.91;100603.38;5045874;28;69998;-39
2023/03/14 08:17:13;;;;;;;;;;;;;;;33.06;43.88;100600.19;5056441;28;65688;-39
2023/03/14 08:19:43;;;;;;;;;;;;;;;33.12;43.75;100601.94;5049918;28;69998;-39
2023/03/14 08:22:14;;;;;;;;;;;;;;;33.18;43.82;100598.22;5043458;28;66541;-39
2023/03/14 08:24:47;;;;;;;;;;;;;;;33.22;43.69;100596.69;5044614;28;68913;-39
2023/03/14 08:27:17;;;;;;;;;;;;;;;33.26;43.56;100595.13;5054177;28;67296;-40
2023/03/14 08:29:47;;;;;;;;;;;;;;;33.31;43.69;100597.94;5054593;27;70696;-39
2023/03/14 08:32:19;;;;;;;;;;;;;;;33.35;43.20;100593.69;5046943;28;66815;-38
2023/03/14 08:34:50;;;;;;;;;;;;;;;33.41;43.39;100596.50;5044507;28;70365;-38
2023/03/14 08:37:20;;;;;;;;;;;;;;;33.46;43.37;100596.56;5048810;28;66199;-39
2023/03/14 08:39:54;;;;;;;;;;;;;;;33.51;43.36;100593.94;5058727;28;70406;-39
2023/03/14 08:42:25;;;;;;;;;;;;;;;33.55;43.27;100603.31;5048380;28;66494;-39
2023/03/14 08:44:55;;;;;;;;;;;;;;;33.62;43.01;100606.69;5054536;28;69124;-39
2023/03/14 08:47:25;;;;;;;;;;;;;;;33.67;43.06;100609.50;5052535;28;66720;-40
2023/03/14 08:49:56;;;;;;;;;;;;;;;33.69;42.78;100607.34;5056180;28;70517;-41
2023/03/14 08:52:26;;;;;;;;;;;;;;;33.73;42.63;100603.06;5056422;28;65520;-40
2023/03/14 08:54:56;;;;;;;;;;;;;;;33.77;42.53;100601.50;5048753;27;70935;-39
2023/03/14 08:57:27;;;;;;;;;;;;;;;33.82;42.70;100606.19;5047432;28;65662;-39
2023/03/14 08:59:57;;;;;;;;;;;;;;;33.86;42.78;100609.25;5046099;27;70486;-40
2023/03/14 09:02:28;;;;;;;;;;;;;;;33.89;42.47;100614.22;5045042;28;66604;-40
2023/03/14 09:04:58;;;;;;;;;;;;;;;33.93;42.80;100612.63;5052298;28;69584;-39
2023/03/14 09:07:29;;;;;;;;;;;;;;;33.94;42.38;100617.00;5051200;28;66851;-40
2023/03/14 09:09:59;;;;;;;;;;;;;;;33.95;42.30;100615.94;5046878;28;69813;-40
2023/03/14 09:12:29;;;;;;;;;;;;;;;33.97;42.33;100617.34;5053773;28;66557;-40
2023/03/14 09:14:59;;;;;;;;;;;;;;;34.01;42.27;100620.38;5059239;28;69127;-39
2023/03/14 09:17:29;;;;;;;;;;;;;;;33.93;42.59;100620.78;5046352;28;66750;-40
2023/03/14 09:19:59;;;;;;;;;;;;;;;33.62;43.81;100625.72;5048783;28;70119;-39
2023/03/14 09:22:30;;;;;;;;;;;;;;;33.41;43.98;100623.69;5048852;28;66555;-40
2023/03/14 09:25:00;;;;;;;;;;;;;;;33.24;44.57;100629.91;5043715;27;70366;-42
2023/03/14 09:27:30;;;;;;;;;;;;;;;33.15;44.92;100636.78;5044032;28;66966;-39
2023/03/14 09:30:01;;;;;;;;;;;;;;;33.07;44.95;100629.00;5047232;28;68833;-40
2023/03/14 09:32:31;;;;;;;;;;;;;;;33.00;45.38;100633.75;5051174;28;66180;-40
2023/03/14 09:35:02;;;;;;;;;;;;;;;32.97;45.33;100639.66;5043778;28;69767;-42
2023/03/14 09:37:32;;;;;;;;;;;;;;;32.99;45.43;100635.63;5050695;28;66143;-42
2023/03/14 09:40:09;;;;;;;;;;;;;;;32.97;45.41;100643.19;5045052;28;70911;-40
2023/03/14 09:42:40;;;;;;;;;;;;;;;32.94;45.58;100644.50;5047905;28;66894;-39
2023/03/14 09:45:31;;;;;;;;;;;;;;;32.93;45.82;100647.44;5045934;28;69703;-41
2023/03/14 09:48:03;;;;;;;;;;;;;;;32.88;46.13;100642.75;5044920;28;65709;-43
2023/03/14 09:50:38;;;;;;;;;;;;;;;32.87;46.34;100637.53;5042171;28;70149;-43
2023/03/14 09:53:19;;;;;;;;;;;;;;;32.85;46.50;100643.22;5044564;28;66405;-40
2023/03/14 09:55:51;;;;;;;;;;;;;;;32.86;46.71;100653.00;5043991;28;70327;-40
2023/03/14 09:58:22;;;;;;;;;;;;;;;32.83;46.80;100660.81;5040251;28;65804;-40
2023/03/14 10:00:55;;;;;;;;;;;;;;;32.82;46.56;100667.31;5046174;28;69959;-40
2023/03/14 10:03:34;;;;;;;;;;;;;;;32.81;46.71;100669.19;5040479;28;66382;-40
2023/03/14 10:06:11;;;;;;;;;;;;;;;32.81;46.53;100668.38;5045248;28;69998;-40
2023/03/14 10:08:42;;;;;;;;;;;;;;;32.80;46.68;100662.13;5040224;28;66566;-42
2023/03/14 10:11:18;;;;;;;;;;;;;;;32.78;46.46;100674.28;5043354;28;70243;-41
2023/03/14 10:14:04;;;;;;;;;;;;;;;32.74;45.54;100673.94;5043834;28;67388;-40
2023/03/14 10:16:40;;;;;;;;;;;;;;;32.73;45.50;100683.13;5044102;28;70407;-41
2023/03/14 10:19:12;;;;;;;;;;;;;;;32.68;45.28;100680.31;5045803;27;67105;-39
2023/03/14 10:21:44;;;;;;;;;;;;;;;32.66;44.92;100682.44;5043481;28;70248;-39
2023/03/14 10:24:20;;;;;;;;;;;;;;;32.61;45.02;100690.47;5045756;27;65685;-39
2023/03/14 10:26:54;;;;;;;;;;;;;;;32.59;45.17;100688.00;5041592;27;70675;-39
2023/03/14 10:29:24;;;;;;;;;;;;;;;32.57;45.53;100689.28;5044648;27;66642;-43
2023/03/14 10:32:07;;;;;;;;;;;;;;;32.55;45.73;100694.97;5046540;27;70721;-39
2023/03/14 10:34:38;;;;;;;;;;;;;;;32.55;45.83;100696.88;5049563;28;67135;-42
2023/03/14 10:37:25;;;;;;;;;;;;;;;32.46;46.17;100699.94;5040817;28;69745;-40
2023/03/14 10:39:58;;;;;;;;;;;;;;;32.52;46.53;100708.19;5027270;28;65790;-38
2023/03/14 10:42:29;;;;;;;;;;;;;;;32.49;47.21;100712.22;5045577;27;69449;-40
2023/03/14 10:45:05;;;;;;;;;;;;;;;32.52;47.53;100716.34;5046350;27;66837;-40
2023/03/14 10:47:35;;;;;;;;;;;;;;;32.52;47.95;100710.91;5045896;28;69641;-39
2023/03/14 10:50:23;;;;;;;;;;;;;;;32.54;48.19;100722.34;5043157;28;66677;-40
2023/03/14 10:52:54;;;;;;;;;;;;;;;32.49;48.39;100721.19;5043431;28;68624;-40
2023/03/14 10:55:40;;;;;;;;;;;;;;;32.45;48.73;100719.94;5044551;28;66426;-40
2023/03/14 10:58:20;;;;;;;;;;;;;;;32.41;49.01;100735.06;5044910;27;69729;-40
2023/03/14 11:01:13;;;;;;;;;;;;;;;32.46;49.86;100727.06;5044655;27;67028;-39
2023/03/14 11:03:48;;;;;;;;;;;;;;;32.72;49.16;100735.81;5044919;28;70457;-41
2023/03/14 11:06:23;;;;;;;;;;;;;;;32.86;48.14;100736.41;5045860;27;66138;-40
2023/03/14 11:09:08;;;;;;;;;;;;;;;32.94;47.44;100739.59;5046584;28;70236;-39
2023/03/14 11:11:41;;;;;;;;;;;;;;;33.03;46.82;100741.97;5045045;28;67072;-40
2023/03/14 11:14:19;;;;;;;;;;;;;;;33.07;46.71;100748.56;5043817;28;69986;-40
2023/03/14 11:16:58;;;;;;;;;;;;;;;33.10;46.46;100753.56;5045943;28;65463;-39
2023/03/14 11:19:28;;;;;;;;;;;;;;;33.11;46.10;100749.75;5040026;28;70219;-41
2023/03/14 11:21:58;;;;;;;;;;;;;;;33.12;46.12;100751.41;5055689;27;66902;-41
2023/03/14 11:24:43;;;;;;;;;;;;;;;33.13;46.13;100763.94;5042653;28;69831;-40
2023/03/14 11:27:18;;;;;;;;;;;;;;;33.13;46.18;100766.66;5043987;27;65505;-41
2023/03/14 11:29:51;;;;;;;;;;;;;;;33.12;45.86;100773.97;5044442;27;70367;-41
2023/03/14 11:32:21;;;;;;;;;;;;;;;33.12;46.10;100773.97;5040796;28;65033;-39
2023/03/14 11:34:53;;;;;;;;;;;;;;;33.11;45.95;100776.94;5044849;27;69466;-41
2023/03/14 11:37:32;;;;;;;;;;;;;;;33.06;46.59;100790.41;5040780;28;66031;-41
2023/03/14 11:40:17;;;;;;;;;;;;;;;32.80;47.32;100787.09;5044363;28;70565;-42
2023/03/14 11:42:56;;;;;;;;;;;;;;;32.59;47.80;100784.94;5045130;28;65581;-39
2023/03/14 11:45:30;;;;;;;;;;;;;;;32.41;48.44;100789.38;5043277;28;70325;-41
2023/03/14 11:48:16;;;;;;;;;;;;;;;32.32;48.70;100796.19;5041671;27;66726;-42
2023/03/14 11:50:49;;;;;;;;;;;;;;;32.25;49.00;100806.31;5043103;28;69702;-42
2023/03/14 11:53:22;;;;;;;;;;;;;;;32.17;49.02;100803.94;5048217;28;67034;-40
2023/03/14 11:55:53;;;;;;;;;;;;;;;32.10;49.42;100803.22;5043427;28;70612;-40
2023/03/14 11:58:26;;;;;;;;;;;;;;;32.01;49.74;100800.81;5049949;27;66947;-40
2023/03/14 12:00:59;;;;;;;;;;;;;;;31.93;49.98;100806.56;5050509;28;70492;-42
2023/03/14 12:03:41;;;;;;;;;;;;;;;31.90;50.04;100815.13;5043940;27;65996;-41
2023/03/14 12:06:28;;;;;;;;;;;;;;;31.88;50.37;100819.94;5049772;28;69260;-41
2023/03/14 12:09:00;;;;;;;;;;;;;;;31.84;50.38;100832.28;5042862;28;66231;-42
2023/03/14 12:11:39;;;;;;;;;;;;;;;31.80;50.83;100831.09;5055584;28;69764;-40
2023/03/14 12:14:20;;;;;;;;;;;;;;;31.78;51.50;100844.06;5047249;28;65439;-39
2023/03/14 12:16:56;;;;;;;;;;;;;;;31.76;51.20;100838.03;5049927;27;70261;-40
2023/03/14 12:19:29;;;;;;;;;;;;;;;31.75;52.38;100841.81;5049202;28;65282;-41
2023/03/14 12:22:02;;;;;;;;;;;;;;;31.76;52.22;100851.59;5043698;28;69283;-40
2023/03/14 12:24:34;;;;;;;;;;;;;;;31.70;52.51;100852.50;5053452;28;65882;-41
2023/03/14 12:27:06;;;;;;;;;;;;;;;31.63;52.53;100849.88;5039507;28;69942;-40
2023/03/14 12:29:57;;;;;;;;;;;;;;;31.58;52.48;100860.56;5050761;28;66547;-41
2023/03/14 12:32:31;;;;;;;;;;;;;;;31.58;52.63;100858.69;5052940;27;69560;-40
2023/03/14 12:35:21;;;;;;;;;;;;;;;31.53;52.72;100863.13;5049028;28;65733;-38
2023/03/14 12:37:53;;;;;;;;;;;;;;;31.51;52.21;100871.50;5083934;27;70813;-40
2023/03/14 12:40:30;;;;;;;;;;;;;;;31.43;51.74;100874.50;5050072;27;66415;-40
2023/03/14 12:43:03;;;;;;;;;;;;;;;31.33;52.51;100874.16;5048454;27;70644;-41
2023/03/14 12:45:34;;;;;;;;;;;;;;;31.27;53.03;100875.03;5049774;28;66639;-40
2023/03/14 12:48:05;;;;;;;;;;;;;;;31.24;53.30;100881.75;5053132;28;70238;-39
2023/03/14 12:51:05;;;;;;;;;;;;;;;31.20;52.96;100885.09;5053136;28;67227;-40
2023/03/14 12:53:53;;;;;;;;;;;;;;;31.16;52.87;100888.25;5045585;27;70050;-40
2023/03/14 12:56:46;;;;;;;;;;;;;;;31.12;52.53;100889.78;5043511;28;66707;-40
2023/03/14 12:59:24;;;;;;;;;;;;;;;31.21;53.00;100897.63;5027760;28;69692;-41
2023/03/14 13:02:14;;;;;;;;;;;;;;;31.19;52.22;100900.53;5051019;28;66855;-41
2023/03/14 13:04:47;;;;;;;;;;;;;;;31.19;52.28;100902.44;5059608;28;69846;-42
2023/03/14 13:07:36;;;;;;;;;;;;;;;31.19;51.68;100907.84;5048231;28;66414;-42
2023/03/14 13:10:09;;;;;;;;;;;;;;;31.12;51.81;100913.31;5046532;28;70047;-41
2023/03/14 13:12:46;;;;;;;;;;;;;;;31.05;51.97;100910.66;5045834;28;65411;-43
2023/03/14 13:15:36;;;;;;;;;;;;;;;30.98;52.24;100909.03;5056391;27;69635;-42